Time;durP1;ratioP1;P1;durP2;ratioP2;P2;SDS_P1;SDS_P2;PMS_P1;PMS_P2;Temp;Humidity;BMP_temperature;BMP_pressure;BME280_temperature;BME280_humidity;BME280_pressure;Samples;Min_cycle;Max_cycle;Signal;HPM_P1;HPM_P2
2023/06/19 00:01:26;;;;;;;9.40;8.27;;;23.30;95.10;;;;;;5092690;28;20044;-60
2023/06/19 00:03:52;;;;;;;9.15;8.25;;;23.30;95.20;;;;;;5093103;28;20044;-59
2023/06/19 00:06:18;;;;;;;9.77;8.77;;;23.30;95.10;;;;;;5092706;28;20085;-60
2023/06/19 00:08:45;;;;;;;9.98;9.07;;;23.20;95.20;;;;;;5092615;28;20248;-61
2023/06/19 00:11:11;;;;;;;9.85;8.82;;;23.30;95.10;;;;;;5092482;28;20048;-57
2023/06/19 00:13:37;;;;;;;9.23;8.15;;;23.20;95.10;;;;;;5093449;28;20062;-61
2023/06/19 00:16:04;;;;;;;10.27;8.68;;;23.20;95.20;;;;;;5092957;28;20063;-61
2023/06/19 00:18:30;;;;;;;10.25;9.07;;;23.20;95.40;;;;;;5092492;28;20052;-59
2023/06/19 00:20:57;;;;;;;9.57;8.68;;;23.20;95.40;;;;;;5092113;28;20097;-60
2023/06/19 00:23:23;;;;;;;10.55;9.40;;;23.10;95.50;;;;;;5092625;28;20054;-59
2023/06/19 00:25:49;;;;;;;10.07;8.60;;;23.10;95.50;;;;;;5092616;28;20108;-61
2023/06/19 00:28:19;;;;;;;10.07;8.57;;;23.10;95.50;;;;;;5092571;28;20048;-61
2023/06/19 00:30:45;;;;;;;9.77;8.77;;;23.10;95.60;;;;;;5091641;28;20063;-63
2023/06/19 00:33:12;;;;;;;9.35;8.35;;;23.10;95.20;;;;;;5092749;28;20055;-60
2023/06/19 00:35:38;;;;;;;9.00;8.10;;;23.10;95.10;;;;;;5092729;28;20048;-60
2023/06/19 00:38:05;;;;;;;9.73;8.25;;;23.20;95.10;;;;;;5092490;28;20500;-62
2023/06/19 00:40:33;;;;;;;10.90;8.15;;;23.20;95.00;;;;;;5091546;28;20051;-61
2023/06/19 00:43:00;;;;;;;9.77;7.97;;;23.10;94.90;;;;;;5092272;28;20456;-59
2023/06/19 00:45:26;;;;;;;9.32;8.38;;;23.10;95.00;;;;;;5092295;28;20036;-60
2023/06/19 00:47:54;;;;;;;10.27;8.55;;;23.10;94.90;;;;;;5092329;28;20048;-61
2023/06/19 00:50:22;;;;;;;9.38;7.70;;;23.10;95.00;;;;;;5091444;28;20055;-59
2023/06/19 00:52:49;;;;;;;9.45;8.52;;;23.10;95.00;;;;;;5090936;28;20058;-61
2023/06/19 00:55:16;;;;;;;8.85;7.95;;;23.10;94.90;;;;;;5092255;28;20108;-60
2023/06/19 00:57:43;;;;;;;9.45;8.52;;;23.10;94.90;;;;;;5092138;28;20051;-61
2023/06/19 01:00:12;;;;;;;9.57;8.20;;;23.10;95.00;;;;;;5091303;28;20044;-61
2023/06/19 01:02:38;;;;;;;11.55;8.48;;;23.00;95.10;;;;;;5090937;28;20488;-61
2023/06/19 01:05:05;;;;;;;9.68;7.60;;;23.00;95.20;;;;;;5092154;28;20059;-59
2023/06/19 01:07:54;;;;;;;8.30;7.50;;;23.00;95.20;;;;;;5092128;28;20052;-57
2023/06/19 01:10:26;;;;;;;9.15;8.25;;;23.00;95.20;;;;;;5091363;28;20048;-60
2023/06/19 01:13:19;;;;;;;10.38;8.65;;;23.00;95.30;;;;;;5092279;28;20109;-60
2023/06/19 01:15:47;;;;;;;9.68;8.68;;;23.00;95.30;;;;;;5090974;28;20434;-62
2023/06/19 01:18:14;;;;;;;12.88;9.13;;;22.90;95.30;;;;;;5092321;28;20066;-58
2023/06/19 01:20:41;;;;;;;8.55;7.65;;;22.90;95.40;;;;;;5090864;28;20055;-61
2023/06/19 01:23:11;;;;;;;10.00;8.20;;;22.90;95.40;;;;;;5092172;28;20476;-61
2023/06/19 01:25:37;;;;;;;9.40;8.40;;;22.90;95.50;;;;;;5091865;28;20426;-61
2023/06/19 01:28:07;;;;;;;10.18;8.98;;;22.90;95.60;;;;;;5092044;28;20040;-59
2023/06/19 01:30:34;;;;;;;8.77;7.97;;;22.90;95.60;;;;;;5090919;28;20423;-62
2023/06/19 01:33:22;;;;;;;10.70;8.80;;;22.90;95.70;;;;;;5091660;28;20048;-61
2023/06/19 01:35:50;;;;;;;9.15;8.23;;;22.80;95.80;;;;;;5091574;28;20488;-61
2023/06/19 01:38:17;;;;;;;12.18;8.38;;;22.80;95.80;;;;;;5091959;28;20143;-60
2023/06/19 01:40:44;;;;;;;9.13;8.10;;;22.80;95.90;;;;;;5091122;28;20518;-61
2023/06/19 01:43:11;;;;;;;11.02;8.45;;;22.80;95.90;;;;;;5091809;28;20058;-60
2023/06/19 01:45:38;;;;;;;9.43;8.23;;;22.80;96.00;;;;;;5092045;28;20044;-63
2023/06/19 01:48:04;;;;;;;9.88;8.15;;;22.80;96.00;;;;;;5091946;28;20051;-59
2023/06/19 01:50:30;;;;;;;10.90;7.75;;;22.80;96.10;;;;;;5091097;28;20063;-61
2023/06/19 01:52:57;;;;;;;10.20;9.10;;;22.80;96.10;;;;;;5091485;28;20423;-61
2023/06/19 01:55:23;;;;;;;14.32;8.90;;;22.80;96.20;;;;;;5091954;28;20047;-62
2023/06/19 01:57:50;;;;;;;9.85;8.23;;;22.80;96.20;;;;;;5091788;28;20052;-60
2023/06/19 02:00:17;;;;;;;8.25;7.40;;;22.80;96.30;;;;;;5090706;28;20454;-61
2023/06/19 02:02:43;;;;;;;9.82;8.25;;;22.80;96.30;;;;;;5091764;28;20059;-59
2023/06/19 02:05:10;;;;;;;9.65;7.57;;;22.80;96.50;;;;;;5094134;28;20452;-61
2023/06/19 02:07:36;;;;;;;10.35;7.75;;;22.80;96.50;;;;;;5095666;28;20105;-61
2023/06/19 02:10:02;;;;;;;9.65;8.65;;;22.80;96.70;;;;;;5095079;28;20044;-60
2023/06/19 02:12:29;;;;;;;9.65;8.02;;;22.70;96.80;;;;;;5095180;28;20047;-62
2023/06/19 02:14:55;;;;;;;8.95;7.93;;;22.70;96.90;;;;;;5095394;28;20361;-61
2023/06/19 02:17:21;;;;;;;9.63;7.45;;;22.70;97.10;;;;;;5095372;28;20105;-61
2023/06/19 02:19:47;;;;;;;8.40;7.38;;;22.60;97.20;;;;;;5094369;28;20048;-62
2023/06/19 02:22:14;;;;;;;9.07;7.28;;;22.60;97.40;;;;;;5095353;28;20048;-58
2023/06/19 02:24:40;;;;;;;8.30;7.43;;;22.60;97.40;;;;;;5095074;28;20056;-62
2023/06/19 02:27:06;;;;;;;9.38;8.32;;;22.60;97.50;;;;;;5095331;28;20079;-60
2023/06/19 02:29:35;;;;;;;9.25;7.55;;;22.60;97.60;;;;;;5094906;28;20039;-60
2023/06/19 02:32:02;;;;;;;8.88;7.97;;;22.50;97.90;;;;;;5094691;28;20056;-60
2023/06/19 02:34:29;;;;;;;9.15;8.18;;;22.50;98.00;;;;;;5094854;28;20217;-61
2023/06/19 02:36:55;;;;;;;10.50;8.13;;;22.50;98.10;;;;;;5094628;28;20058;-60
2023/06/19 02:39:22;;;;;;;8.70;7.60;;;22.50;98.30;;;;;;5094305;28;20048;-59
2023/06/19 02:41:49;;;;;;;8.25;7.45;;;22.50;98.30;;;;;;5094363;28;20538;-60
2023/06/19 02:44:15;;;;;;;8.50;7.60;;;22.50;98.40;;;;;;5094298;28;20397;-60
2023/06/19 02:46:41;;;;;;;9.18;8.13;;;22.40;98.70;;;;;;5094647;28;20044;-60
2023/06/19 02:49:07;;;;;;;10.68;7.68;;;22.40;98.70;;;;;;5093429;28;20117;-62
2023/06/19 02:51:33;;;;;;;9.00;8.10;;;22.30;98.80;;;;;;5094216;28;20056;-61
2023/06/19 02:54:00;;;;;;;8.15;7.35;;;22.30;99.00;;;;;;5094376;28;20117;-62
2023/06/19 02:56:27;;;;;;;8.60;7.68;;;22.30;99.20;;;;;;5094473;28;20048;-60
2023/06/19 02:58:53;;;;;;;9.30;7.22;;;22.40;99.30;;;;;;5094319;28;20048;-59
2023/06/19 03:01:20;;;;;;;8.60;7.70;;;22.20;99.30;;;;;;5094132;28;20417;-62
2023/06/19 03:03:47;;;;;;;7.78;6.68;;;22.20;99.60;;;;;;5094671;28;20044;-61
2023/06/19 03:06:14;;;;;;;7.53;6.57;;;22.20;99.70;;;;;;5094604;28;20480;-59
2023/06/19 03:08:40;;;;;;;9.00;6.93;;;22.10;99.80;;;;;;5094375;28;20044;-61
2023/06/19 03:11:06;;;;;;;8.10;6.72;;;22.10;99.90;;;;;;5093995;28;20044;-61
2023/06/19 03:13:53;;;;;;;7.22;6.53;;;22.00;99.90;;;;;;5094526;28;20048;-62
2023/06/19 03:16:21;;;;;;;7.25;6.18;;;22.00;99.90;;;;;;5093315;28;20048;-57
2023/06/19 03:18:48;;;;;;;6.45;5.80;;;22.00;99.90;;;;;;5094112;28;20056;-62
2023/06/19 03:21:15;;;;;;;7.68;6.47;;;21.90;99.90;;;;;;5093416;28;20044;-60
2023/06/19 03:23:41;;;;;;;8.13;5.97;;;21.80;99.90;;;;;;5093965;28;20059;-59
2023/06/19 03:26:08;;;;;;;7.50;6.18;;;21.70;99.90;;;;;;5094010;28;20445;-63
2023/06/19 03:28:34;;;;;;;9.13;6.15;;;21.70;99.90;;;;;;5093860;28;20469;-62
2023/06/19 03:31:01;;;;;;;7.97;6.47;;;21.60;99.90;;;;;;5092996;28;20067;-61
2023/06/19 03:33:27;;;;;;;7.60;6.00;;;21.60;99.90;;;;;;5094019;28;20056;-59
2023/06/19 03:35:53;;;;;;;7.93;6.30;;;21.50;99.90;;;;;;5093784;28;20465;-62
2023/06/19 03:38:19;;;;;;;7.80;6.03;;;21.40;99.90;;;;;;5093676;28;20419;-63
2023/06/19 03:40:46;;;;;;;7.28;5.63;;;21.30;99.90;;;;;;5093203;28;20056;-62
2023/06/19 03:43:12;;;;;;;6.53;5.53;;;21.30;99.90;;;;;;5093951;28;20429;-59
2023/06/19 03:45:38;;;;;;;6.50;5.50;;;21.30;99.90;;;;;;5094057;28;20097;-61
2023/06/19 03:48:04;;;;;;;6.75;5.95;;;21.20;99.90;;;;;;5093721;28;20387;-62
2023/06/19 03:50:31;;;;;;;7.05;5.72;;;21.20;99.90;;;;;;5093074;28;20055;-62
2023/06/19 03:52:57;;;;;;;6.80;5.65;;;21.20;99.90;;;;;;5093722;28;20399;-63
2023/06/19 03:55:23;;;;;;;5.55;5.00;;;21.20;99.90;;;;;;5093371;28;20529;-60
2023/06/19 03:57:49;;;;;;;6.22;5.22;;;21.10;99.90;;;;;;5093557;28;20056;-62
2023/06/19 04:00:18;;;;;;;8.02;5.18;;;21.00;99.90;;;;;;5092932;28;20629;-61
2023/06/19 04:02:46;;;;;;;5.85;4.40;;;21.00;99.90;;;;;;5093314;28;20483;-62
2023/06/19 04:05:13;;;;;;;5.30;4.35;;;21.00;99.90;;;;;;5093258;28;20040;-59
2023/06/19 04:07:39;;;;;;;6.25;4.80;;;21.00;99.90;;;;;;5093130;28;20052;-60
2023/06/19 04:10:06;;;;;;;5.32;4.00;;;20.90;99.90;;;;;;5092552;28;20101;-60
2023/06/19 04:12:32;;;;;;;5.70;4.53;;;20.90;99.90;;;;;;5093353;28;20090;-62
2023/06/19 04:14:59;;;;;;;6.32;4.55;;;20.90;99.90;;;;;;5093327;28;20414;-62
2023/06/19 04:17:25;;;;;;;5.18;4.22;;;20.90;99.90;;;;;;5093776;28;20052;-61
2023/06/19 04:19:51;;;;;;;4.93;4.30;;;20.90;99.90;;;;;;5092899;28;20063;-59
2023/06/19 04:22:18;;;;;;;7.07;4.47;;;20.90;99.90;;;;;;5093461;28;20054;-60
2023/06/19 04:24:44;;;;;;;8.38;4.72;;;20.90;99.90;;;;;;5093240;28;20445;-61
2023/06/19 04:27:10;;;;;;;5.75;4.45;;;20.80;99.90;;;;;;5093056;28;20058;-62
2023/06/19 04:29:37;;;;;;;6.07;4.68;;;20.80;99.90;;;;;;5092556;28;20093;-61
2023/06/19 04:32:11;;;;;;;6.47;4.90;;;20.90;99.90;;;;;;5092517;28;20115;-60
2023/06/19 04:34:38;;;;;;;6.10;4.93;;;20.80;99.90;;;;;;5093102;28;20059;-60
2023/06/19 04:37:05;;;;;;;5.45;4.40;;;20.80;99.90;;;;;;5092691;28;20147;-60
2023/06/19 04:39:31;;;;;;;5.35;4.50;;;20.80;99.90;;;;;;5091652;28;20108;-59
2023/06/19 04:41:57;;;;;;;6.50;4.63;;;20.90;99.90;;;;;;5092427;28;20312;-59
2023/06/19 04:44:24;;;;;;;5.68;4.95;;;21.00;99.90;;;;;;5092714;28;20063;-58
2023/06/19 04:46:50;;;;;;;5.80;4.75;;;21.00;99.90;;;;;;5092590;28;20047;-60
2023/06/19 04:49:16;;;;;;;5.75;4.40;;;21.00;99.90;;;;;;5092482;28;20406;-60
2023/06/19 04:51:42;;;;;;;5.35;4.75;;;21.00;99.90;;;;;;5092465;28;20476;-62
2023/06/19 04:54:08;;;;;;;6.95;5.30;;;21.10;99.90;;;;;;5093086;28;20274;-61
2023/06/19 04:56:35;;;;;;;5.82;5.18;;;21.10;99.90;;;;;;5093057;28;20048;-59
2023/06/19 04:59:02;;;;;;;6.22;5.00;;;21.10;99.90;;;;;;5086744;28;20121;-59
2023/06/19 05:01:28;;;;;;;6.53;4.80;;;21.20;99.90;;;;;;5080288;28;20040;-62
2023/06/19 05:03:56;;;;;;;8.75;5.15;;;21.30;99.90;;;;;;5081294;28;20067;-61
2023/06/19 05:06:26;;;;;;;5.70;4.90;;;21.20;99.90;;;;;;5080052;28;20452;-61
2023/06/19 05:08:52;;;;;;;5.50;5.00;;;21.20;99.90;;;;;;5081818;28;20037;-60
2023/06/19 05:11:18;;;;;;;8.30;5.70;;;21.20;99.90;;;;;;5081385;28;20051;-61
2023/06/19 05:13:44;;;;;;;7.93;5.60;;;21.20;99.90;;;;;;5079854;28;20036;-59
2023/06/19 05:16:15;;;;;;;6.82;5.85;;;21.20;99.90;;;;;;5081959;28;20124;-62
2023/06/19 05:18:41;;;;;;;6.95;5.28;;;21.20;99.90;;;;;;5072101;28;20067;-61
2023/06/19 05:21:07;;;;;;;7.55;5.38;;;21.30;99.90;;;;;;5090874;28;20097;-62
2023/06/19 05:23:35;;;;;;;6.22;5.45;;;21.30;99.90;;;;;;5092141;28;20055;-62
2023/06/19 05:26:01;;;;;;;6.47;5.22;;;21.60;99.90;;;;;;5092155;28;20139;-61
2023/06/19 05:28:27;;;;;;;6.50;5.80;;;21.80;99.90;;;;;;5091068;28;20800;-62
2023/06/19 05:30:53;;;;;;;7.68;5.60;;;21.80;99.90;;;;;;5090833;28;20051;-58
2023/06/19 05:33:20;;;;;;;6.07;5.25;;;21.70;99.90;;;;;;5092349;28;20188;-61
2023/06/19 05:35:52;;;;;;;7.47;5.15;;;21.70;99.90;;;;;;5091682;28;20106;-61
2023/06/19 05:38:19;;;;;;;6.60;5.32;;;21.70;99.90;;;;;;5091775;28;20075;-63
2023/06/19 05:40:45;;;;;;;6.28;5.55;;;21.80;99.90;;;;;;5094969;28;20109;-62
2023/06/19 05:43:12;;;;;;;6.88;5.75;;;21.70;99.90;;;;;;5095531;28;20422;-62
2023/06/19 05:45:38;;;;;;;7.72;6.93;;;21.80;99.90;;;;;;5095562;28;20043;-62
2023/06/19 05:48:04;;;;;;;9.65;7.82;;;21.80;99.90;;;;;;5087146;28;20494;-63
2023/06/19 05:50:31;;;;;;;10.48;7.55;;;21.90;99.90;;;;;;5089866;28;20052;-62
2023/06/19 05:52:57;;;;;;;11.25;9.30;;;21.90;99.90;;;;;;5095404;28;20051;-63
2023/06/19 05:55:27;;;;;;;12.35;10.38;;;21.90;99.90;;;;;;5095351;28;20063;-62
2023/06/19 05:57:54;;;;;;;12.20;10.90;;;21.70;99.90;;;;;;5095197;28;20059;-63
2023/06/19 06:00:20;;;;;;;13.65;11.48;;;21.70;99.90;;;;;;5094354;28;20047;-63
2023/06/19 06:02:46;;;;;;;14.93;11.95;;;21.50;99.90;;;;;;5095067;28;20079;-64
2023/06/19 06:05:13;;;;;;;13.50;12.13;;;21.50;99.90;;;;;;5094836;28;20044;-63
2023/06/19 06:07:39;;;;;;;15.88;12.68;;;21.40;99.90;;;;;;5094823;28;20051;-63
2023/06/19 06:10:06;;;;;;;14.70;12.35;;;21.30;99.90;;;;;;5094242;28;20082;-65
2023/06/19 06:12:35;;;;;;;17.40;13.55;;;21.30;99.90;;;;;;5095092;28;20051;-64
2023/06/19 06:15:04;;;;;;;15.52;13.23;;;21.10;99.90;;;;;;5094996;28;20407;-64
2023/06/19 06:17:30;;;;;;;14.52;12.52;;;21.10;99.90;;;;;;5093173;28;20078;-63
2023/06/19 06:19:56;;;;;;;13.90;12.18;;;21.10;99.90;;;;;;5094782;28;20047;-62
2023/06/19 06:22:23;;;;;;;14.88;12.10;;;21.10;99.90;;;;;;5094614;28;20044;-63
2023/06/19 06:24:49;;;;;;;14.25;11.68;;;21.10;99.90;;;;;;5095158;28;20048;-63
2023/06/19 06:27:15;;;;;;;13.20;11.23;;;21.10;99.90;;;;;;5095473;28;20048;-64
2023/06/19 06:29:41;;;;;;;11.82;9.00;;;21.10;99.90;;;;;;5094795;28;20044;-64
2023/06/19 06:32:09;;;;;;;23.25;11.30;;;21.10;99.90;;;;;;5094925;28;20066;-65
2023/06/19 06:34:35;;;;;;;15.90;9.93;;;21.10;99.90;;;;;;5093369;28;20048;-63
2023/06/19 06:37:01;;;;;;;12.23;9.32;;;21.10;99.90;;;;;;5093652;28;20051;-64
2023/06/19 06:39:28;;;;;;;11.63;9.77;;;21.10;99.90;;;;;;5094293;28;20063;-64
2023/06/19 06:41:54;;;;;;;14.60;9.75;;;21.00;99.90;;;;;;5094857;28;20055;-63
2023/06/19 06:44:20;;;;;;;16.65;8.90;;;21.10;99.90;;;;;;5095240;28;20074;-62
2023/06/19 06:46:47;;;;;;;10.35;8.32;;;21.00;99.90;;;;;;5094801;28;20052;-64
2023/06/19 06:49:13;;;;;;;7.47;6.72;;;21.10;99.90;;;;;;5094534;28;20036;-61
2023/06/19 06:51:40;;;;;;;10.07;7.72;;;21.00;99.90;;;;;;5094861;28;20048;-63
2023/06/19 06:54:06;;;;;;;9.98;6.18;;;21.10;99.90;;;;;;5094570;28;20493;-62
2023/06/19 06:56:32;;;;;;;6.97;5.40;;;21.10;99.90;;;;;;5095259;28;20043;-62
2023/06/19 06:58:59;;;;;;;6.47;5.18;;;21.10;99.90;;;;;;5093945;28;20047;-62
2023/06/19 07:01:25;;;;;;;6.75;5.35;;;21.10;99.90;;;;;;5094495;28;20464;-62
2023/06/19 07:03:51;;;;;;;6.13;5.53;;;21.10;99.90;;;;;;5094037;28;20113;-63
2023/06/19 07:06:17;;;;;;;7.15;6.45;;;21.00;99.90;;;;;;5094500;28;20048;-62
2023/06/19 07:08:47;;;;;;;7.43;6.72;;;21.00;99.90;;;;;;5094710;28;20043;-62
2023/06/19 07:11:13;;;;;;;7.15;6.45;;;20.90;99.90;;;;;;5093124;28;20052;-62
2023/06/19 07:13:41;;;;;;;9.38;7.10;;;20.90;99.90;;;;;;5094442;28;20445;-63
2023/06/19 07:16:07;;;;;;;8.43;7.60;;;20.90;99.90;;;;;;5094257;28;20056;-63
2023/06/19 07:18:37;;;;;;;9.93;8.75;;;20.90;99.90;;;;;;5094780;28;20081;-62
2023/06/19 07:21:08;;;;;;;12.13;10.32;;;20.90;99.90;;;;;;5093332;28;20369;-61
2023/06/19 07:23:34;;;;;;;9.70;8.00;;;20.90;99.90;;;;;;5094020;28;20420;-61
2023/06/19 07:26:01;;;;;;;10.85;7.25;;;20.80;99.90;;;;;;5094005;28;20121;-61
2023/06/19 07:28:28;;;;;;;7.30;6.50;;;20.80;99.90;;;;;;5093976;28;20048;-61
2023/06/19 07:30:54;;;;;;;9.18;7.10;;;20.80;99.90;;;;;;5092862;28;20052;-62
2023/06/19 07:33:20;;;;;;;7.57;6.43;;;20.80;99.90;;;;;;5093810;28;20044;-62
2023/06/19 07:35:46;;;;;;;7.78;6.63;;;20.80;99.90;;;;;;5093912;28;20106;-62
2023/06/19 07:38:13;;;;;;;10.80;6.45;;;20.90;99.90;;;;;;5093828;28;20460;-62
2023/06/19 07:40:39;;;;;;;10.85;7.63;;;20.90;99.90;;;;;;5093334;28;20040;-63
2023/06/19 07:43:05;;;;;;;8.60;6.35;;;21.00;99.90;;;;;;5093818;28;20044;-63
2023/06/19 07:45:31;;;;;;;7.68;6.93;;;21.10;99.90;;;;;;5073574;28;20060;-63
2023/06/19 07:47:57;;;;;;;8.13;7.22;;;21.00;99.90;;;;;;5073109;28;20542;-62
2023/06/19 07:50:24;;;;;;;9.18;7.35;;;21.10;99.90;;;;;;5086174;28;20456;-62
2023/06/19 07:52:50;;;;;;;11.38;7.70;;;21.20;99.90;;;;;;5092840;28;20376;-62
2023/06/19 07:55:16;;;;;;;8.98;8.07;;;21.40;99.90;;;;;;5093438;28;20105;-64
2023/06/19 07:57:43;;;;;;;10.32;9.18;;;21.60;99.90;;;;;;5093543;28;20464;-61
2023/06/19 08:00:12;;;;;;;10.13;8.85;;;21.80;99.90;;;;;;5092876;28;20048;-61
2023/06/19 08:02:40;;;;;;;9.63;8.73;;;22.00;99.90;;;;;;5093087;28;20183;-62
2023/06/19 08:05:10;;;;;;;10.15;8.38;;;22.00;99.90;;;;;;5093462;28;20048;-62
2023/06/19 08:07:36;;;;;;;12.18;8.77;;;22.00;99.90;;;;;;5093762;28;20040;-62
2023/06/19 08:10:06;;;;;;;7.95;7.13;;;21.90;99.90;;;;;;5092613;28;20074;-62
2023/06/19 08:12:32;;;;;;;8.63;7.20;;;22.00;99.90;;;;;;5093440;28;20048;-63
2023/06/19 08:14:58;;;;;;;8.18;7.35;;;22.10;99.90;;;;;;5093100;28;20056;-63
2023/06/19 08:17:25;;;;;;;99.93;19.52;;;22.00;99.90;;;;;;5093438;28;20063;-62
2023/06/19 08:19:51;;;;;;;8.82;7.93;;;22.00;99.90;;;;;;5092519;28;20081;-63
2023/06/19 08:22:17;;;;;;;10.45;7.13;;;21.80;99.90;;;;;;5092951;28;20483;-63
2023/06/19 08:24:43;;;;;;;10.27;7.68;;;21.90;99.90;;;;;;5093104;28;20060;-63
2023/06/19 08:27:10;;;;;;;7.93;7.10;;;21.90;99.90;;;;;;5092978;28;20457;-63
2023/06/19 08:29:36;;;;;;;9.25;7.10;;;22.00;99.90;;;;;;5092673;28;20040;-63
2023/06/19 08:32:02;;;;;;;9.55;7.13;;;22.00;99.90;;;;;;5092660;28;20056;-63
2023/06/19 08:34:29;;;;;;;9.38;7.18;;;22.10;99.90;;;;;;5092848;28;20459;-63
2023/06/19 08:36:55;;;;;;;8.75;7.15;;;22.00;99.90;;;;;;5092972;28;20048;-62
2023/06/19 08:39:22;;;;;;;8.88;7.32;;;22.00;99.90;;;;;;5092392;28;20116;-62
2023/06/19 08:41:48;;;;;;;9.27;7.00;;;22.00;99.90;;;;;;5092963;28;20040;-63
2023/06/19 08:44:14;;;;;;;9.65;7.30;;;22.10;99.90;;;;;;5093065;28;20048;-63
2023/06/19 08:46:41;;;;;;;9.07;7.22;;;22.00;99.90;;;;;;5092764;28;20048;-63
2023/06/19 08:49:10;;;;;;;8.05;7.25;;;22.00;99.90;;;;;;5092450;28;20357;-62
2023/06/19 08:51:37;;;;;;;9.77;8.00;;;22.20;99.90;;;;;;5092821;28;20056;-62
2023/06/19 08:54:06;;;;;;;13.15;8.02;;;22.30;99.90;;;;;;5092963;28;20048;-62
2023/06/19 08:56:34;;;;;;;10.82;8.23;;;22.40;99.90;;;;;;5092977;28;20044;-62
2023/06/19 08:59:11;;;;;;;11.50;9.23;;;22.40;99.90;;;;;;5091206;28;20055;-62
2023/06/19 09:01:38;;;;;;;;;;;22.30;99.90;;;;;;5093262;28;20055;-63
2023/06/19 09:04:12;;;;;;;14.43;10.63;;;22.20;99.90;;;;;;5092729;28;19919;-63
2023/06/19 09:06:52;;;;;;;13.75;10.73;;;22.00;99.90;;;;;;5092628;28;20058;-62
2023/06/19 09:09:23;;;;;;;14.43;11.88;;;22.00;99.90;;;;;;5090777;28;20036;-59
2023/06/19 09:12:04;;;;;;;14.93;11.38;;;22.10;99.90;;;;;;5092852;28;20173;-61
2023/06/19 09:14:41;;;;;;;14.65;12.52;;;22.10;99.90;;;;;;5091709;28;20047;-58
2023/06/19 09:17:17;;;;;;;13.73;11.13;;;21.90;99.90;;;;;;5092679;28;20128;-59
2023/06/19 09:19:51;;;;;;;15.15;11.48;;;21.90;99.90;;;;;;5091964;28;20135;-60
2023/06/19 09:22:20;;;;;;;13.38;11.65;;;21.60;99.90;;;;;;5092746;28;20051;-63
2023/06/19 09:24:47;;;;;;;14.77;11.68;;;21.60;99.90;;;;;;5090359;28;20048;-63
2023/06/19 09:27:18;;;;;;;17.73;12.57;;;21.60;99.90;;;;;;5092582;28;20433;-62
2023/06/19 09:29:47;;;;;;;15.45;12.02;;;21.60;99.90;;;;;;5091782;28;20046;-62
2023/06/19 09:32:23;;;;;;;13.57;9.82;;;21.80;99.90;;;;;;5092399;28;20108;-63
2023/06/19 09:34:52;;;;;;;16.70;12.50;;;22.10;99.90;;;;;;5092426;28;20055;-62
2023/06/19 09:37:28;;;;;;;12.68;10.55;;;22.20;99.90;;;;;;5092488;28;20056;-63
2023/06/19 09:40:11;;;;;;;12.15;9.80;;;22.30;99.90;;;;;;5091660;28;20419;-63
2023/06/19 09:42:51;;;;;;;14.63;9.93;;;22.20;99.90;;;;;;5092325;28;20059;-63
2023/06/19 09:45:20;;;;;;;12.45;10.63;;;22.10;99.90;;;;;;5092094;28;20414;-63
2023/06/19 09:47:47;;;;;;;15.15;11.40;;;22.00;99.90;;;;;;5092466;28;20089;-63
2023/06/19 09:50:15;;;;;;;13.00;10.88;;;21.90;99.90;;;;;;5091551;28;20040;-63
2023/06/19 09:52:43;;;;;;;12.18;10.38;;;21.70;99.90;;;;;;5092242;28;20232;-63
2023/06/19 09:55:12;;;;;;;14.88;10.38;;;21.80;99.90;;;;;;5092264;28;20052;-63
2023/06/19 09:57:41;;;;;;;14.18;10.07;;;21.80;99.90;;;;;;5092114;28;20044;-63
2023/06/19 10:00:15;;;;;;;12.77;9.55;;;22.00;99.90;;;;;;5091558;28;20055;-63
2023/06/19 10:02:43;;;;;;;14.25;9.98;;;22.00;99.90;;;;;;5091778;28;20394;-62
2023/06/19 10:05:12;;;;;;;13.82;10.60;;;22.20;99.90;;;;;;5092014;28;20040;-62
2023/06/19 10:07:42;;;;;;;11.50;9.88;;;22.20;99.90;;;;;;5092181;28;20058;-62
2023/06/19 10:10:23;;;;;;;11.77;9.18;;;22.10;99.90;;;;;;5091528;28;20052;-62
2023/06/19 10:12:49;;;;;;;13.05;8.38;;;22.00;99.90;;;;;;5092162;28;20052;-62
2023/06/19 10:15:18;;;;;;;11.57;9.27;;;22.10;99.90;;;;;;5092188;28;20048;-63
2023/06/19 10:18:05;;;;;;;13.63;10.40;;;22.00;99.90;;;;;;5092212;28;20043;-63
2023/06/19 10:20:35;;;;;;;11.88;10.60;;;22.00;99.90;;;;;;5091356;28;20052;-63
2023/06/19 10:23:07;;;;;;;11.82;9.23;;;21.90;99.90;;;;;;5091931;28;20063;-63
2023/06/19 10:25:36;;;;;;;13.40;9.85;;;22.00;99.90;;;;;;5093848;28;20368;-62
2023/06/19 10:28:07;;;;;;;11.52;9.32;;;22.10;99.90;;;;;;5096157;28;20044;-62
2023/06/19 10:30:34;;;;;;;11.43;9.70;;;22.10;99.90;;;;;;5094896;28;20048;-62
2023/06/19 10:33:02;;;;;;;14.52;10.55;;;22.10;99.90;;;;;;5095506;28;20105;-62
2023/06/19 10:35:29;;;;;;;12.38;10.25;;;22.00;99.90;;;;;;5095384;28;20056;-62
2023/06/19 10:37:56;;;;;;;11.15;9.98;;;22.30;99.90;;;;;;5095453;28;20059;-62
2023/06/19 10:40:22;;;;;;;14.13;11.10;;;22.30;99.90;;;;;;5094662;28;20090;-62
2023/06/19 10:42:48;;;;;;;14.50;11.32;;;22.20;99.90;;;;;;5095189;28;20053;-62
2023/06/19 10:45:18;;;;;;;14.35;10.57;;;22.30;99.90;;;;;;5095244;28;20445;-62
2023/06/19 10:47:44;;;;;;;13.38;11.05;;;22.40;99.90;;;;;;5095007;28;20067;-63
2023/06/19 10:50:15;;;;;;;13.30;11.85;;;22.40;99.90;;;;;;5094156;28;20411;-62
2023/06/19 10:52:42;;;;;;;13.30;11.30;;;22.50;99.90;;;;;;5095046;28;20048;-62
2023/06/19 10:55:10;;;;;;;12.43;11.05;;;22.40;99.90;;;;;;5095287;28;20047;-63
2023/06/19 10:57:36;;;;;;;14.07;10.63;;;22.60;99.90;;;;;;5095201;28;20418;-62
2023/06/19 11:00:12;;;;;;;13.20;10.45;;;22.80;99.90;;;;;;5094476;28;20056;-64
2023/06/19 11:02:43;;;;;;;16.70;11.68;;;23.00;99.90;;;;;;5094899;28;20044;-62
2023/06/19 11:05:11;;;;;;;16.35;12.63;;;23.10;99.90;;;;;;5094860;28;20044;-62
2023/06/19 11:07:38;;;;;;;15.40;13.10;;;23.30;99.90;;;;;;5094872;28;20082;-63
2023/06/19 11:10:05;;;;;;;16.05;12.73;;;23.10;99.90;;;;;;5094078;28;20055;-64
2023/06/19 11:12:35;;;;;;;13.80;11.52;;;23.20;99.90;;;;;;5094703;28;20093;-62
2023/06/19 11:15:05;;;;;;;19.05;13.00;;;23.30;99.90;;;;;;5095015;28;20052;-61
2023/06/19 11:17:32;;;;;;;13.15;11.55;;;23.10;99.90;;;;;;5095279;28;20044;-64
2023/06/19 11:19:59;;;;;;;16.55;12.13;;;23.00;99.90;;;;;;5094161;28;20114;-62
2023/06/19 11:22:37;;;;;;;13.55;11.75;;;23.00;99.90;;;;;;5095001;28;20052;-62
2023/06/19 11:25:04;;;;;;;15.43;12.18;;;23.10;99.90;;;;;;5093854;28;20036;-60
2023/06/19 11:27:31;;;;;;;16.92;12.90;;;23.20;99.90;;;;;;5093523;28;20052;-62
2023/06/19 11:29:58;;;;;;;15.05;12.98;;;23.20;99.90;;;;;;5094395;28;20430;-62
2023/06/19 11:32:31;;;;;;;18.23;12.98;;;23.10;99.90;;;;;;5094252;28;20348;-63
2023/06/19 11:35:04;;;;;;;13.80;11.75;;;23.20;99.90;;;;;;5094575;28;20055;-62
2023/06/19 11:37:30;;;;;;;15.45;12.45;;;23.20;99.90;;;;;;5094300;28;20064;-62
2023/06/19 11:39:57;;;;;;;13.98;12.45;;;23.40;99.90;;;;;;5094902;28;20048;-59
2023/06/19 11:42:25;;;;;;;15.00;12.73;;;23.50;99.90;;;;;;5095067;28;20052;-64
2023/06/19 11:45:06;;;;;;;18.73;12.88;;;23.50;99.90;;;;;;5094680;28;20062;-62
2023/06/19 11:47:33;;;;;;;18.13;11.93;;;23.60;99.90;;;;;;5095769;28;20059;-63
2023/06/19 11:50:00;;;;;;;16.23;13.05;;;23.70;99.90;;;;;;5095208;28;20058;-63
2023/06/19 11:52:26;;;;;;;15.25;13.00;;;23.80;99.90;;;;;;5094539;28;20118;-62
2023/06/19 11:54:52;;;;;;;19.58;13.63;;;23.80;99.90;;;;;;5093636;28;20052;-62
2023/06/19 11:57:19;;;;;;;13.23;11.18;;;23.70;99.90;;;;;;5094136;28;20048;-62
2023/06/19 11:59:45;;;;;;;15.38;12.30;;;23.90;99.90;;;;;;5093755;28;20055;-63
2023/06/19 12:02:12;;;;;;;15.65;11.38;;;23.90;99.90;;;;;;5093556;28;20376;-62
2023/06/19 12:04:39;;;;;;;14.88;13.02;;;24.00;99.90;;;;;;5093208;28;20466;-61
2023/06/19 12:07:06;;;;;;;16.60;12.00;;;23.80;99.90;;;;;;5093876;28;20063;-63
2023/06/19 12:09:34;;;;;;;17.52;12.50;;;23.80;99.90;;;;;;5093699;28;20410;-60
2023/06/19 12:12:01;;;;;;;17.63;12.98;;;23.90;99.90;;;;;;5093692;28;20180;-60
2023/06/19 12:14:27;;;;;;;16.65;13.15;;;24.00;99.90;;;;;;5093096;28;20052;-62
2023/06/19 12:16:53;;;;;;;13.98;12.27;;;24.00;99.90;;;;;;5093670;28;20063;-60
2023/06/19 12:19:20;;;;;;;12.70;10.93;;;24.20;99.90;;;;;;5093406;28;20135;-62
2023/06/19 12:21:46;;;;;;;15.13;11.73;;;24.40;99.90;;;;;;5092140;28;20518;-62
2023/06/19 12:24:12;;;;;;;17.58;13.18;;;24.70;99.90;;;;;;5093082;28;20184;-62
2023/06/19 12:26:39;;;;;;;15.35;11.88;;;24.40;99.90;;;;;;5093455;28;20044;-61
2023/06/19 12:29:06;;;;;;;16.95;14.15;;;24.40;99.90;;;;;;5093611;28;20048;-62
2023/06/19 12:31:33;;;;;;;17.67;12.30;;;24.60;99.90;;;;;;5092383;28;20051;-60
2023/06/19 12:34:03;;;;;;;15.60;12.40;;;24.90;99.90;;;;;;5093444;28;20143;-61
2023/06/19 12:36:32;;;;;;;15.63;13.13;;;25.00;99.90;;;;;;5092691;28;20052;-62
2023/06/19 12:38:59;;;;;;;16.92;12.23;;;25.00;99.90;;;;;;5093152;28;20052;-61
2023/06/19 12:41:27;;;;;;;17.40;13.82;;;25.20;99.90;;;;;;5092806;28;20052;-63